sensor_id;sensor_type;location;lat;lon;timestamp;pressure;altitude;pressure_sealevel;temperature;humidity
4767;BME280;2397;53.576;9.746;2023-05-10T00:00:12;100747.31;;;15.72;44.25
4767;BME280;2397;53.576;9.746;2023-05-10T00:02:39;100746.59;;;15.63;44.22
4767;BME280;2397;53.576;9.746;2023-05-10T00:05:07;100753.84;;;15.69;44.09
4767;BME280;2397;53.576;9.746;2023-05-10T00:07:33;100752.03;;;15.70;44.79
4767;BME280;2397;53.576;9.746;2023-05-10T00:10:00;100754.09;;;15.74;44.59
4767;BME280;2397;53.576;9.746;2023-05-10T00:12:26;100757.88;;;15.65;44.01
4767;BME280;2397;53.576;9.746;2023-05-10T00:14:53;100754.91;;;15.60;45.05
4767;BME280;2397;53.576;9.746;2023-05-10T00:17:19;100756.22;;;15.50;45.60
4767;BME280;2397;53.576;9.746;2023-05-10T00:19:46;100752.44;;;15.44;44.94
4767;BME280;2397;53.576;9.746;2023-05-10T00:22:12;100753.03;;;15.32;45.96
4767;BME280;2397;53.576;9.746;2023-05-10T00:24:39;100747.09;;;15.30;46.11
4767;BME280;2397;53.576;9.746;2023-05-10T00:27:06;100740.84;;;15.23;46.33
4767;BME280;2397;53.576;9.746;2023-05-10T00:29:33;100743.66;;;15.21;45.81
4767;BME280;2397;53.576;9.746;2023-05-10T00:32:00;100742.75;;;15.14;46.43
4767;BME280;2397;53.576;9.746;2023-05-10T00:34:26;100732.53;;;15.03;46.65
4767;BME280;2397;53.576;9.746;2023-05-10T00:36:53;100731.53;;;15.04;46.91
4767;BME280;2397;53.576;9.746;2023-05-10T00:39:20;100736.38;;;15.01;47.39
4767;BME280;2397;53.576;9.746;2023-05-10T00:41:46;100730.13;;;14.94;47.32
4767;BME280;2397;53.576;9.746;2023-05-10T00:44:14;100724.72;;;14.87;47.83
4767;BME280;2397;53.576;9.746;2023-05-10T00:46:41;100727.53;;;14.86;47.47
4767;BME280;2397;53.576;9.746;2023-05-10T00:49:08;100725.41;;;14.81;47.48
4767;BME280;2397;53.576;9.746;2023-05-10T00:51:34;100722.47;;;14.76;47.74
4767;BME280;2397;53.576;9.746;2023-05-10T00:54:02;100713.94;;;14.81;47.15
4767;BME280;2397;53.576;9.746;2023-05-10T00:56:29;100718.16;;;14.75;47.51
4767;BME280;2397;53.576;9.746;2023-05-10T00:58:56;100714.78;;;14.81;46.98
4767;BME280;2397;53.576;9.746;2023-05-10T01:01:23;100708.63;;;14.81;47.75
4767;BME280;2397;53.576;9.746;2023-05-10T01:03:50;100708.19;;;14.77;47.17
4767;BME280;2397;53.576;9.746;2023-05-10T01:06:17;100708.88;;;14.71;47.69
4767;BME280;2397;53.576;9.746;2023-05-10T01:08:44;100707.53;;;14.75;47.60
4767;BME280;2397;53.576;9.746;2023-05-10T01:11:10;100704.31;;;14.65;47.53
4767;BME280;2397;53.576;9.746;2023-05-10T01:13:39;100700.53;;;14.60;48.49
4767;BME280;2397;53.576;9.746;2023-05-10T01:16:07;100700.88;;;14.57;48.31
4767;BME280;2397;53.576;9.746;2023-05-10T01:18:36;100702.16;;;14.61;47.86
4767;BME280;2397;53.576;9.746;2023-05-10T01:40:39;100697.84;;;14.37;49.20
4767;BME280;2397;53.576;9.746;2023-05-10T01:43:14;100700.84;;;14.34;49.48
4767;BME280;2397;53.576;9.746;2023-05-10T01:48:32;100705.72;;;14.31;49.81
4767;BME280;2397;53.576;9.746;2023-05-10T01:50:59;100700.84;;;14.34;49.91
4767;BME280;2397;53.576;9.746;2023-05-10T01:53:27;100697.41;;;14.26;50.05
4767;BME280;2397;53.576;9.746;2023-05-10T01:55:55;100700.28;;;14.24;50.44
4767;BME280;2397;53.576;9.746;2023-05-10T01:58:31;100700.94;;;14.18;50.53
4767;BME280;2397;53.576;9.746;2023-05-10T02:01:01;100690.66;;;14.15;50.30
4767;BME280;2397;53.576;9.746;2023-05-10T02:03:31;100701.78;;;14.19;50.53
4767;BME280;2397;53.576;9.746;2023-05-10T02:05:58;100701.28;;;14.15;50.50
4767;BME280;2397;53.576;9.746;2023-05-10T02:08:25;100702.59;;;14.19;50.65
4767;BME280;2397;53.576;9.746;2023-05-10T02:10:55;100699.28;;;14.17;50.84
4767;BME280;2397;53.576;9.746;2023-05-10T02:13:23;100691.56;;;14.08;50.61
4767;BME280;2397;53.576;9.746;2023-05-10T02:15:51;100692.53;;;14.07;50.92
4767;BME280;2397;53.576;9.746;2023-05-10T02:18:19;100696.19;;;14.06;50.53
4767;BME280;2397;53.576;9.746;2023-05-10T02:20:48;100704.31;;;14.04;50.81
4767;BME280;2397;53.576;9.746;2023-05-10T02:23:16;100705.97;;;14.05;51.14
4767;BME280;2397;53.576;9.746;2023-05-10T02:25:43;100705.00;;;13.98;51.42
4767;BME280;2397;53.576;9.746;2023-05-10T02:28:14;100701.38;;;13.99;51.67
4767;BME280;2397;53.576;9.746;2023-05-10T02:30:41;100705.22;;;13.97;51.18
4767;BME280;2397;53.576;9.746;2023-05-10T02:33:08;100702.41;;;13.90;51.74
4767;BME280;2397;53.576;9.746;2023-05-10T02:35:35;100703.72;;;13.94;51.70
4767;BME280;2397;53.576;9.746;2023-05-10T02:38:02;100701.72;;;13.96;51.86
4767;BME280;2397;53.576;9.746;2023-05-10T02:40:31;100704.19;;;13.98;52.29
4767;BME280;2397;53.576;9.746;2023-05-10T02:42:59;100699.69;;;13.98;51.93
4767;BME280;2397;53.576;9.746;2023-05-10T02:45:29;100698.41;;;13.94;52.16
4767;BME280;2397;53.576;9.746;2023-05-10T02:47:56;100705.38;;;13.95;52.75
4767;BME280;2397;53.576;9.746;2023-05-10T02:50:25;100704.06;;;13.91;52.06
4767;BME280;2397;53.576;9.746;2023-05-10T02:52:56;100701.59;;;13.90;52.91
4767;BME280;2397;53.576;9.746;2023-05-10T02:55:32;100693.47;;;13.83;52.37
4767;BME280;2397;53.576;9.746;2023-05-10T02:58:00;100700.78;;;13.81;52.63
4767;BME280;2397;53.576;9.746;2023-05-10T03:00:27;100696.50;;;13.80;52.47
4767;BME280;2397;53.576;9.746;2023-05-10T03:02:54;100695.19;;;13.76;52.42
4767;BME280;2397;53.576;9.746;2023-05-10T03:05:21;100696.50;;;13.80;52.90
4767;BME280;2397;53.576;9.746;2023-05-10T03:07:48;100692.00;;;13.81;52.76
4767;BME280;2397;53.576;9.746;2023-05-10T03:10:14;100693.06;;;13.72;52.53
4767;BME280;2397;53.576;9.746;2023-05-10T03:15:31;100690.44;;;13.63;52.81
4767;BME280;2397;53.576;9.746;2023-05-10T03:18:10;100696.34;;;13.73;53.33
4767;BME280;2397;53.576;9.746;2023-05-10T03:20:41;100691.56;;;13.69;52.97
4767;BME280;2397;53.576;9.746;2023-05-10T03:23:13;100687.75;;;13.72;52.95
4767;BME280;2397;53.576;9.746;2023-05-10T03:25:48;100686.44;;;13.68;52.86
4767;BME280;2397;53.576;9.746;2023-05-10T03:28:16;100682.31;;;13.65;53.24
4767;BME280;2397;53.576;9.746;2023-05-10T03:30:44;100691.06;;;13.65;53.37
4767;BME280;2397;53.576;9.746;2023-05-10T03:33:12;100698.22;;;13.65;53.26
4767;BME280;2397;53.576;9.746;2023-05-10T03:35:42;100689.75;;;13.61;52.96
4767;BME280;2397;53.576;9.746;2023-05-10T03:38:10;100688.47;;;13.57;53.28
4767;BME280;2397;53.576;9.746;2023-05-10T03:40:37;100685.84;;;13.49;53.58
4767;BME280;2397;53.576;9.746;2023-05-10T03:43:03;100696.28;;;13.51;53.01
4767;BME280;2397;53.576;9.746;2023-05-10T03:45:30;100688.97;;;13.53;53.37
4767;BME280;2397;53.576;9.746;2023-05-10T03:47:58;100686.84;;;13.48;53.34
4767;BME280;2397;53.576;9.746;2023-05-10T03:50:25;100692.16;;;13.48;53.41
4767;BME280;2397;53.576;9.746;2023-05-10T03:52:52;100685.00;;;13.49;53.41
4767;BME280;2397;53.576;9.746;2023-05-10T03:55:20;100684.88;;;13.42;53.81
4767;BME280;2397;53.576;9.746;2023-05-10T03:57:47;100683.72;;;13.37;53.91
4767;BME280;2397;53.576;9.746;2023-05-10T04:00:16;100683.53;;;13.46;54.51
4767;BME280;2397;53.576;9.746;2023-05-10T04:02:46;100689.16;;;13.43;54.35
4767;BME280;2397;53.576;9.746;2023-05-10T04:05:17;100679.06;;;13.47;54.38
4767;BME280;2397;53.576;9.746;2023-05-10T04:07:44;100680.41;;;13.43;54.07
4767;BME280;2397;53.576;9.746;2023-05-10T04:10:11;100693.16;;;13.39;54.24
4767;BME280;2397;53.576;9.746;2023-05-10T04:12:38;100686.88;;;13.32;54.20
4767;BME280;2397;53.576;9.746;2023-05-10T04:15:04;100689.66;;;13.39;55.12
4767;BME280;2397;53.576;9.746;2023-05-10T04:17:31;100682.72;;;13.38;54.67
4767;BME280;2397;53.576;9.746;2023-05-10T04:19:58;100682.22;;;13.42;55.07
4767;BME280;2397;53.576;9.746;2023-05-10T04:22:24;100681.03;;;13.45;54.46
4767;BME280;2397;53.576;9.746;2023-05-10T04:24:51;100686.03;;;13.40;54.76
4767;BME280;2397;53.576;9.746;2023-05-10T04:27:17;100679.91;;;13.39;54.77
4767;BME280;2397;53.576;9.746;2023-05-10T04:29:44;100681.03;;;13.45;54.22
4767;BME280;2397;53.576;9.746;2023-05-10T04:32:10;100684.53;;;13.45;54.81
4767;BME280;2397;53.576;9.746;2023-05-10T04:34:37;100684.03;;;13.42;55.04
4767;BME280;2397;53.576;9.746;2023-05-10T04:37:04;100680.56;;;13.41;55.06
4767;BME280;2397;53.576;9.746;2023-05-10T04:39:30;100683.06;;;13.43;54.84
4767;BME280;2397;53.576;9.746;2023-05-10T04:41:57;100684.38;;;13.47;54.90
4767;BME280;2397;53.576;9.746;2023-05-10T04:44:23;100696.28;;;13.51;54.91
4767;BME280;2397;53.576;9.746;2023-05-10T04:46:50;100684.97;;;13.57;55.00
4767;BME280;2397;53.576;9.746;2023-05-10T04:49:16;100684.63;;;13.60;55.34
4767;BME280;2397;53.576;9.746;2023-05-10T04:51:44;100683.94;;;13.66;55.45
4767;BME280;2397;53.576;9.746;2023-05-10T04:54:10;100697.38;;;13.64;55.97
4767;BME280;2397;53.576;9.746;2023-05-10T04:56:37;100697.59;;;13.55;55.09
4767;BME280;2397;53.576;9.746;2023-05-10T04:59:03;100694.59;;;13.58;54.80
4767;BME280;2397;53.576;9.746;2023-05-10T05:01:30;100694.06;;;13.62;54.37
4767;BME280;2397;53.576;9.746;2023-05-10T05:03:56;100697.38;;;13.64;54.69
4767;BME280;2397;53.576;9.746;2023-05-10T05:06:23;100695.75;;;13.63;55.13
4767;BME280;2397;53.576;9.746;2023-05-10T05:08:51;100699.38;;;13.62;55.17
4767;BME280;2397;53.576;9.746;2023-05-10T05:11:17;100698.34;;;13.72;54.99
4767;BME280;2397;53.576;9.746;2023-05-10T05:13:44;100698.19;;;13.73;54.15
4767;BME280;2397;53.576;9.746;2023-05-10T05:16:11;100704.75;;;13.85;55.83
4767;BME280;2397;53.576;9.746;2023-05-10T05:18:38;100703.41;;;13.89;54.29
4767;BME280;2397;53.576;9.746;2023-05-10T05:21:15;100703.59;;;13.88;54.11
4767;BME280;2397;53.576;9.746;2023-05-10T05:23:42;100689.47;;;13.95;53.58
4767;BME280;2397;53.576;9.746;2023-05-10T05:26:09;100699.13;;;13.88;54.55
4767;BME280;2397;53.576;9.746;2023-05-10T05:28:38;100705.44;;;13.87;54.40
4767;BME280;2397;53.576;9.746;2023-05-10T05:31:05;100708.53;;;13.91;55.85
4767;BME280;2397;53.576;9.746;2023-05-10T05:33:32;100697.25;;;13.97;54.45
4767;BME280;2397;53.576;9.746;2023-05-10T05:36:05;100702.19;;;14.00;54.56
4767;BME280;2397;53.576;9.746;2023-05-10T05:38:32;100710.75;;;14.10;53.99
4767;BME280;2397;53.576;9.746;2023-05-10T05:40:59;100700.66;;;14.05;53.85
4767;BME280;2397;53.576;9.746;2023-05-10T05:43:25;100704.16;;;14.06;54.15
4767;BME280;2397;53.576;9.746;2023-05-10T05:45:52;100709.75;;;14.11;53.89
4767;BME280;2397;53.576;9.746;2023-05-10T05:48:24;100706.41;;;14.17;54.10
4767;BME280;2397;53.576;9.746;2023-05-10T05:50:54;100714.59;;;14.07;54.46
4767;BME280;2397;53.576;9.746;2023-05-10T05:53:21;100710.13;;;14.08;55.07
4767;BME280;2397;53.576;9.746;2023-05-10T05:55:55;100712.59;;;14.09;54.76
4767;BME280;2397;53.576;9.746;2023-05-10T05:58:22;100712.25;;;14.12;54.36
4767;BME280;2397;53.576;9.746;2023-05-10T06:00:49;100714.69;;;14.22;55.13
4767;BME280;2397;53.576;9.746;2023-05-10T06:03:15;100714.53;;;14.23;55.08
4767;BME280;2397;53.576;9.746;2023-05-10T06:05:42;100715.03;;;14.27;55.14
4767;BME280;2397;53.576;9.746;2023-05-10T06:08:08;100722.44;;;14.31;55.31
4767;BME280;2397;53.576;9.746;2023-05-10T06:10:35;100719.78;;;14.31;54.95
4767;BME280;2397;53.576;9.746;2023-05-10T06:13:02;100718.50;;;14.27;54.52
4767;BME280;2397;53.576;9.746;2023-05-10T06:15:29;100725.31;;;14.30;54.83
4767;BME280;2397;53.576;9.746;2023-05-10T06:17:55;100723.78;;;14.35;54.50
4767;BME280;2397;53.576;9.746;2023-05-10T06:20:22;100728.41;;;14.33;54.59
4767;BME280;2397;53.576;9.746;2023-05-10T06:22:49;100734.16;;;14.45;55.24
4767;BME280;2397;53.576;9.746;2023-05-10T06:25:15;100738.41;;;14.54;54.79
4767;BME280;2397;53.576;9.746;2023-05-10T06:27:44;100734.31;;;14.66;55.54
4767;BME280;2397;53.576;9.746;2023-05-10T06:30:16;100732.78;;;14.71;54.94
4767;BME280;2397;53.576;9.746;2023-05-10T06:32:43;100745.63;;;14.68;55.88
4767;BME280;2397;53.576;9.746;2023-05-10T06:35:10;100743.13;;;14.66;54.71
4767;BME280;2397;53.576;9.746;2023-05-10T06:37:36;100746.66;;;14.81;54.17
4767;BME280;2397;53.576;9.746;2023-05-10T06:40:04;100748.06;;;14.92;54.71
4767;BME280;2397;53.576;9.746;2023-05-10T06:42:31;100747.66;;;15.03;55.28
4767;BME280;2397;53.576;9.746;2023-05-10T06:44:57;100749.19;;;14.97;53.89
4767;BME280;2397;53.576;9.746;2023-05-10T06:47:24;100753.13;;;15.01;53.76
4767;BME280;2397;53.576;9.746;2023-05-10T06:49:51;100757.03;;;15.13;55.37
4767;BME280;2397;53.576;9.746;2023-05-10T06:52:17;100753.13;;;15.24;54.36
4767;BME280;2397;53.576;9.746;2023-05-10T06:54:44;100750.72;;;15.29;53.46
4767;BME280;2397;53.576;9.746;2023-05-10T06:57:10;100755.94;;;15.22;52.65
4767;BME280;2397;53.576;9.746;2023-05-10T06:59:56;100755.88;;;15.30;53.24
4767;BME280;2397;53.576;9.746;2023-05-10T07:02:22;100755.63;;;15.40;53.41
4767;BME280;2397;53.576;9.746;2023-05-10T07:04:49;100752.09;;;15.25;53.52
4767;BME280;2397;53.576;9.746;2023-05-10T07:07:16;100755.59;;;15.25;53.68
4767;BME280;2397;53.576;9.746;2023-05-10T07:09:43;100755.25;;;15.28;52.77
4767;BME280;2397;53.576;9.746;2023-05-10T07:12:09;100759.50;;;15.37;53.70
4767;BME280;2397;53.576;9.746;2023-05-10T07:14:40;100754.84;;;15.39;53.26
4767;BME280;2397;53.576;9.746;2023-05-10T07:17:06;100749.69;;;15.38;53.70
4767;BME280;2397;53.576;9.746;2023-05-10T07:19:33;100756.13;;;15.43;52.71
4767;BME280;2397;53.576;9.746;2023-05-10T07:21:59;100766.31;;;15.54;52.71
4767;BME280;2397;53.576;9.746;2023-05-10T07:24:26;100762.38;;;15.65;54.00
4767;BME280;2397;53.576;9.746;2023-05-10T07:26:53;100761.16;;;15.67;52.39
4767;BME280;2397;53.576;9.746;2023-05-10T07:29:19;100773.31;;;15.70;54.18
4767;BME280;2397;53.576;9.746;2023-05-10T07:31:46;100765.59;;;15.75;52.99
4767;BME280;2397;53.576;9.746;2023-05-10T07:34:12;100772.28;;;15.85;52.16
4767;BME280;2397;53.576;9.746;2023-05-10T07:36:39;100772.09;;;15.87;52.70
4767;BME280;2397;53.576;9.746;2023-05-10T07:39:05;100785.78;;;15.98;53.18
4767;BME280;2397;53.576;9.746;2023-05-10T07:41:32;100777.25;;;16.03;51.93
4767;BME280;2397;53.576;9.746;2023-05-10T07:44:00;100772.38;;;16.06;52.07
4767;BME280;2397;53.576;9.746;2023-05-10T07:46:27;100780.16;;;16.08;51.37
4767;BME280;2397;53.576;9.746;2023-05-10T07:48:55;100770.91;;;15.89;52.49
4767;BME280;2397;53.576;9.746;2023-05-10T07:51:21;100774.41;;;15.90;52.69
4767;BME280;2397;53.576;9.746;2023-05-10T07:53:48;100778.78;;;15.83;55.43
4767;BME280;2397;53.576;9.746;2023-05-10T07:56:24;100775.28;;;15.82;55.15
4767;BME280;2397;53.576;9.746;2023-05-10T07:58:56;100787.91;;;15.74;54.87
4767;BME280;2397;53.576;9.746;2023-05-10T08:01:23;100789.53;;;15.75;55.90
4767;BME280;2397;53.576;9.746;2023-05-10T08:03:50;100796.31;;;15.77;55.43
4767;BME280;2397;53.576;9.746;2023-05-10T08:06:18;100800.84;;;15.91;56.31
4767;BME280;2397;53.576;9.746;2023-05-10T08:08:46;100805.50;;;15.89;55.71
4767;BME280;2397;53.576;9.746;2023-05-10T08:11:16;100816.44;;;15.94;56.88
4767;BME280;2397;53.576;9.746;2023-05-10T08:13:44;100819.09;;;15.94;57.39
4767;BME280;2397;53.576;9.746;2023-05-10T08:16:11;100818.06;;;15.66;57.57
4767;BME280;2397;53.576;9.746;2023-05-10T08:18:38;100825.09;;;15.59;58.98
4767;BME280;2397;53.576;9.746;2023-05-10T08:21:05;100833.44;;;15.56;58.65
4767;BME280;2397;53.576;9.746;2023-05-10T08:23:32;100839.38;;;15.44;60.94
4767;BME280;2397;53.576;9.746;2023-05-10T08:25:59;100829.81;;;15.35;60.14
4767;BME280;2397;53.576;9.746;2023-05-10T08:28:26;100831.34;;;15.29;61.33
4767;BME280;2397;53.576;9.746;2023-05-10T08:30:53;100834.06;;;15.21;60.16
4767;BME280;2397;53.576;9.746;2023-05-10T08:33:19;100840.16;;;15.07;61.49
4767;BME280;2397;53.576;9.746;2023-05-10T08:35:46;100844.09;;;15.11;61.94
4767;BME280;2397;53.576;9.746;2023-05-10T08:38:13;100843.41;;;15.17;61.37
4767;BME280;2397;53.576;9.746;2023-05-10T08:40:42;100843.41;;;15.17;62.17
4767;BME280;2397;53.576;9.746;2023-05-10T08:43:11;100840.34;;;15.28;60.96
4767;BME280;2397;53.576;9.746;2023-05-10T08:45:40;100848.91;;;15.16;61.69
4767;BME280;2397;53.576;9.746;2023-05-10T08:48:07;100846.59;;;15.13;60.00
4767;BME280;2397;53.576;9.746;2023-05-10T08:50:40;100856.63;;;15.25;63.04
4767;BME280;2397;53.576;9.746;2023-05-10T08:53:12;100855.53;;;15.20;60.22
4767;BME280;2397;53.576;9.746;2023-05-10T08:55:39;100860.06;;;15.11;63.20
4767;BME280;2397;53.576;9.746;2023-05-10T08:58:06;100855.31;;;14.99;62.37
4767;BME280;2397;53.576;9.746;2023-05-10T09:00:33;100857.75;;;15.08;63.50
4767;BME280;2397;53.576;9.746;2023-05-10T09:03:01;100867.22;;;15.33;63.86
4767;BME280;2397;53.576;9.746;2023-05-10T09:05:27;100866.72;;;15.38;62.95
4767;BME280;2397;53.576;9.746;2023-05-10T09:07:54;100879.28;;;15.44;63.03
4767;BME280;2397;53.576;9.746;2023-05-10T09:10:21;100872.31;;;15.43;63.17
4767;BME280;2397;53.576;9.746;2023-05-10T09:12:50;100881.03;;;15.29;63.83
4767;BME280;2397;53.576;9.746;2023-05-10T09:15:18;100882.44;;;15.17;64.33
4767;BME280;2397;53.576;9.746;2023-05-10T09:17:47;100888.47;;;15.33;64.56
4767;BME280;2397;53.576;9.746;2023-05-10T09:20:13;100886.06;;;15.24;62.91
4767;BME280;2397;53.576;9.746;2023-05-10T09:22:40;100888.66;;;15.32;63.93
4767;BME280;2397;53.576;9.746;2023-05-10T09:25:12;100897.88;;;15.21;64.67
4767;BME280;2397;53.576;9.746;2023-05-10T09:27:41;100905.59;;;15.08;63.70
4767;BME280;2397;53.576;9.746;2023-05-10T09:30:08;100905.13;;;15.05;65.11
4767;BME280;2397;53.576;9.746;2023-05-10T09:32:39;100910.63;;;14.73;66.15
4767;BME280;2397;53.576;9.746;2023-05-10T09:35:14;100908.19;;;14.63;66.70
4767;BME280;2397;53.576;9.746;2023-05-10T09:37:44;100905.69;;;14.62;67.06
4767;BME280;2397;53.576;9.746;2023-05-10T09:40:20;100908.53;;;14.60;68.36
4767;BME280;2397;53.576;9.746;2023-05-10T09:42:56;100904.50;;;14.64;67.89
4767;BME280;2397;53.576;9.746;2023-05-10T09:45:25;100916.06;;;14.49;69.25
4767;BME280;2397;53.576;9.746;2023-05-10T09:47:53;100914.06;;;14.43;70.03
4767;BME280;2397;53.576;9.746;2023-05-10T09:50:20;100919.63;;;14.25;72.28
4767;BME280;2397;53.576;9.746;2023-05-10T09:52:49;100924.34;;;14.46;73.68
4767;BME280;2397;53.576;9.746;2023-05-10T09:55:19;100917.50;;;14.59;74.18
4767;BME280;2397;53.576;9.746;2023-05-10T09:57:47;100926.84;;;14.47;73.31
4767;BME280;2397;53.576;9.746;2023-05-10T10:00:20;100931.22;;;14.32;74.74
4767;BME280;2397;53.576;9.746;2023-05-10T10:02:54;100936.72;;;14.23;75.00
4767;BME280;2397;53.576;9.746;2023-05-10T10:05:30;100934.16;;;14.37;75.37
4767;BME280;2397;53.576;9.746;2023-05-10T10:07:58;100935.38;;;14.19;74.56
4767;BME280;2397;53.576;9.746;2023-05-10T10:10:26;100944.31;;;14.18;75.61
4767;BME280;2397;53.576;9.746;2023-05-10T10:12:54;100942.66;;;14.17;76.38
4767;BME280;2397;53.576;9.746;2023-05-10T10:15:21;100947.50;;;14.13;77.19
4767;BME280;2397;53.576;9.746;2023-05-10T10:17:50;100950.50;;;14.02;77.14
4767;BME280;2397;53.576;9.746;2023-05-10T10:20:18;100949.31;;;14.05;78.32
4767;BME280;2397;53.576;9.746;2023-05-10T10:22:46;100949.97;;;14.07;78.81
4767;BME280;2397;53.576;9.746;2023-05-10T10:25:15;100950.81;;;14.07;78.30
4767;BME280;2397;53.576;9.746;2023-05-10T10:30:42;100954.78;;;14.11;78.91
4767;BME280;2397;53.576;9.746;2023-05-10T10:36:02;100960.09;;;14.11;79.49
4767;BME280;2397;53.576;9.746;2023-05-10T10:41:48;100959.75;;;14.14;79.01
4767;BME280;2397;53.576;9.746;2023-05-10T10:52:34;100964.06;;;14.07;79.79
4767;BME280;2397;53.576;9.746;2023-05-10T10:57:50;100967.72;;;13.98;80.14
4767;BME280;2397;53.576;9.746;2023-05-10T11:00:37;100976.19;;;14.10;80.71
4767;BME280;2397;53.576;9.746;2023-05-10T11:03:06;100977.97;;;14.09;80.70
4767;BME280;2397;53.576;9.746;2023-05-10T11:05:44;100975.34;;;14.17;80.36
4767;BME280;2397;53.576;9.746;2023-05-10T11:10:38;100976.50;;;13.99;81.80
4767;BME280;2397;53.576;9.746;2023-05-10T11:13:07;100985.31;;;14.07;82.10
4767;BME280;2397;53.576;9.746;2023-05-10T11:18:16;100990.13;;;13.88;81.47
4767;BME280;2397;53.576;9.746;2023-05-10T11:20:50;100986.81;;;13.86;82.46
4767;BME280;2397;53.576;9.746;2023-05-10T11:23:16;100993.78;;;13.87;82.68
4767;BME280;2397;53.576;9.746;2023-05-10T11:25:45;100996.59;;;13.93;82.71
4767;BME280;2397;53.576;9.746;2023-05-10T11:28:12;100996.25;;;13.96;83.23
4767;BME280;2397;53.576;9.746;2023-05-10T11:30:40;100998.91;;;13.96;82.71
4767;BME280;2397;53.576;9.746;2023-05-10T11:33:07;100999.91;;;13.95;82.87
4767;BME280;2397;53.576;9.746;2023-05-10T11:35:39;100996.41;;;14.03;82.50
4767;BME280;2397;53.576;9.746;2023-05-10T11:38:10;100994.09;;;14.16;83.02
4767;BME280;2397;53.576;9.746;2023-05-10T11:40:37;100998.94;;;14.28;82.61
4767;BME280;2397;53.576;9.746;2023-05-10T11:43:04;100997.41;;;14.42;82.13
4767;BME280;2397;53.576;9.746;2023-05-10T11:45:33;100998.69;;;14.54;82.24
4767;BME280;2397;53.576;9.746;2023-05-10T11:48:00;101003.81;;;14.63;82.45
4767;BME280;2397;53.576;9.746;2023-05-10T11:50:28;101011.50;;;14.50;81.75
4767;BME280;2397;53.576;9.746;2023-05-10T11:52:56;101003.72;;;14.41;82.01
4767;BME280;2397;53.576;9.746;2023-05-10T11:55:23;101005.81;;;14.53;83.04
4767;BME280;2397;53.576;9.746;2023-05-10T11:57:54;101011.63;;;14.57;83.20
4767;BME280;2397;53.576;9.746;2023-05-10T12:00:21;101014.06;;;14.74;83.65
4767;BME280;2397;53.576;9.746;2023-05-10T12:02:48;101015.72;;;14.75;82.59
4767;BME280;2397;53.576;9.746;2023-05-10T12:05:15;101011.22;;;14.84;82.77
4767;BME280;2397;53.576;9.746;2023-05-10T12:07:42;101022.84;;;14.83;82.90
4767;BME280;2397;53.576;9.746;2023-05-10T12:10:12;101021.16;;;14.90;83.15
4767;BME280;2397;53.576;9.746;2023-05-10T12:12:47;101022.31;;;14.95;83.00
4767;BME280;2397;53.576;9.746;2023-05-10T12:15:24;101029.22;;;15.04;81.76
4767;BME280;2397;53.576;9.746;2023-05-10T12:17:50;101016.28;;;15.09;81.71
4767;BME280;2397;53.576;9.746;2023-05-10T12:20:22;101023.25;;;15.10;81.82
4767;BME280;2397;53.576;9.746;2023-05-10T12:22:54;101024.34;;;15.24;82.05
4767;BME280;2397;53.576;9.746;2023-05-10T12:25:22;101018.97;;;15.32;82.37
4767;BME280;2397;53.576;9.746;2023-05-10T12:27:54;101021.16;;;15.36;82.69
4767;BME280;2397;53.576;9.746;2023-05-10T12:30:27;101029.31;;;15.27;81.70
4767;BME280;2397;53.576;9.746;2023-05-10T12:33:07;101021.81;;;15.38;81.64
4767;BME280;2397;53.576;9.746;2023-05-10T12:35:48;101028.31;;;15.58;82.09
4767;BME280;2397;53.576;9.746;2023-05-10T12:38:29;101027.63;;;15.64;81.88
4767;BME280;2397;53.576;9.746;2023-05-10T12:40:57;101031.53;;;15.76;81.02
4767;BME280;2397;53.576;9.746;2023-05-10T12:43:24;101039.28;;;15.86;79.93
4767;BME280;2397;53.576;9.746;2023-05-10T12:45:51;101037.19;;;15.73;79.29
4767;BME280;2397;53.576;9.746;2023-05-10T12:48:17;101036.97;;;15.83;79.16
4767;BME280;2397;53.576;9.746;2023-05-10T12:50:45;101029.16;;;16.04;80.08
4767;BME280;2397;53.576;9.746;2023-05-10T12:53:16;101035.03;;;16.14;79.93
4767;BME280;2397;53.576;9.746;2023-05-10T12:55:43;101038.09;;;16.25;78.75
4767;BME280;2397;53.576;9.746;2023-05-10T12:58:10;101035.19;;;16.35;79.58
4767;BME280;2397;53.576;9.746;2023-05-10T13:00:46;101042.50;;;16.55;79.31
4767;BME280;2397;53.576;9.746;2023-05-10T13:03:13;101042.31;;;16.57;79.17
4767;BME280;2397;53.576;9.746;2023-05-10T13:05:39;101047.31;;;16.37;78.60
4767;BME280;2397;53.576;9.746;2023-05-10T13:08:06;101043.44;;;16.48;78.11
4767;BME280;2397;53.576;9.746;2023-05-10T13:10:33;101047.56;;;16.50;79.01
4767;BME280;2397;53.576;9.746;2023-05-10T13:12:59;101055.47;;;16.44;78.08
4767;BME280;2397;53.576;9.746;2023-05-10T13:15:26;101051.97;;;16.43;78.37
4767;BME280;2397;53.576;9.746;2023-05-10T13:17:53;101054.31;;;16.38;77.51
4767;BME280;2397;53.576;9.746;2023-05-10T13:20:20;101060.22;;;16.48;78.42
4767;BME280;2397;53.576;9.746;2023-05-10T13:22:47;101058.59;;;16.47;78.23
4767;BME280;2397;53.576;9.746;2023-05-10T13:25:15;101058.94;;;16.44;77.98
4767;BME280;2397;53.576;9.746;2023-05-10T13:27:42;101052.63;;;16.37;77.63
4767;BME280;2397;53.576;9.746;2023-05-10T13:30:09;101056.31;;;16.36;78.10
4767;BME280;2397;53.576;9.746;2023-05-10T13:32:35;101056.81;;;16.40;77.71
4767;BME280;2397;53.576;9.746;2023-05-10T13:35:03;101059.28;;;16.41;77.94
4767;BME280;2397;53.576;9.746;2023-05-10T13:37:30;101056.69;;;16.33;77.70
4767;BME280;2397;53.576;9.746;2023-05-10T13:39:57;101063.09;;;16.24;78.34
4767;BME280;2397;53.576;9.746;2023-05-10T13:42:24;101057.47;;;16.19;78.41
4767;BME280;2397;53.576;9.746;2023-05-10T13:44:51;101056.56;;;16.27;79.42
4767;BME280;2397;53.576;9.746;2023-05-10T13:47:18;101052.09;;;16.27;79.40
4767;BME280;2397;53.576;9.746;2023-05-10T13:49:44;101054.84;;;16.34;80.02
4767;BME280;2397;53.576;9.746;2023-05-10T13:52:10;101043.19;;;16.35;79.59
4767;BME280;2397;53.576;9.746;2023-05-10T13:54:38;101052.81;;;16.58;79.34
4767;BME280;2397;53.576;9.746;2023-05-10T13:57:05;101047.13;;;17.05;78.82
4767;BME280;2397;53.576;9.746;2023-05-10T13:59:32;101052.78;;;17.31;77.18
4767;BME280;2397;53.576;9.746;2023-05-10T14:01:59;101055.00;;;17.42;76.33
4767;BME280;2397;53.576;9.746;2023-05-10T14:04:26;101042.84;;;17.54;75.52